Terminal Aerodrome Forecast
Issued by NWS Quad Cities IA IL

Home | Current Version | Previous Version | Text Only | Print | Product List | Glossary On
Versions: 1 2 3 4 5 6 7 8 9 10 11 12 13 14 15 16 17 18 19 20 21 22 23 24 25 26 27 28 29 30 31 32 33 34 35
843
FTUS43 KDVN 190455 AAA
TAFMLI
TAF AMD
KMLI 190455Z 1905/1924 18003KT 2SM BR SCT002
      TEMPO 1905/1909 1/2SM FZFG OVC002
     FM191500 12004KT 3SM BR OVC012
     FM191900 10005KT 1SM -RA OVC006=

USA.gov is the U.S. government's official web portal to all federal, state and local government web resources and services.